sensor_id;sensor_type;location;lat;lon;timestamp;P1;durP1;ratioP1;P2;durP2;ratioP2
19521;SDS011;9905;52.126;5.596;2022-11-20T00:02:10;10.20;;;9.23;;
19521;SDS011;9905;52.126;5.596;2022-11-20T00:04:37;8.57;;;7.90;;
19521;SDS011;9905;52.126;5.596;2022-11-20T00:07:04;11.10;;;8.87;;
19521;SDS011;9905;52.126;5.596;2022-11-20T00:09:31;9.73;;;8.67;;
19521;SDS011;9905;52.126;5.596;2022-11-20T00:11:57;8.83;;;8.03;;
19521;SDS011;9905;52.126;5.596;2022-11-20T00:14:24;10.13;;;9.07;;
19521;SDS011;9905;52.126;5.596;2022-11-20T00:16:51;8.40;;;7.70;;
19521;SDS011;9905;52.126;5.596;2022-11-20T00:19:19;7.67;;;7.07;;
19521;SDS011;9905;52.126;5.596;2022-11-20T00:21:46;9.13;;;8.23;;
19521;SDS011;9905;52.126;5.596;2022-11-20T00:24:12;13.10;;;8.80;;
19521;SDS011;9905;52.126;5.596;2022-11-20T00:26:39;9.23;;;8.33;;
19521;SDS011;9905;52.126;5.596;2022-11-20T00:29:08;8.60;;;7.80;;
19521;SDS011;9905;52.126;5.596;2022-11-20T00:31:35;11.37;;;7.93;;
19521;SDS011;9905;52.126;5.596;2022-11-20T00:34:02;9.07;;;8.27;;
19521;SDS011;9905;52.126;5.596;2022-11-20T00:36:32;9.40;;;8.37;;
19521;SDS011;9905;52.126;5.596;2022-11-20T00:38:59;11.73;;;8.83;;
19521;SDS011;9905;52.126;5.596;2022-11-20T00:41:26;11.63;;;7.90;;
19521;SDS011;9905;52.126;5.596;2022-11-20T00:43:55;9.20;;;8.20;;
19521;SDS011;9905;52.126;5.596;2022-11-20T00:46:22;9.60;;;7.97;;
19521;SDS011;9905;52.126;5.596;2022-11-20T00:48:50;7.93;;;7.30;;
19521;SDS011;9905;52.126;5.596;2022-11-20T00:51:18;9.40;;;8.47;;
19521;SDS011;9905;52.126;5.596;2022-11-20T00:53:47;9.03;;;8.10;;
19521;SDS011;9905;52.126;5.596;2022-11-20T00:56:15;10.57;;;9.23;;
19521;SDS011;9905;52.126;5.596;2022-11-20T00:58:44;10.30;;;9.40;;
19521;SDS011;9905;52.126;5.596;2022-11-20T01:01:12;8.83;;;8.23;;
19521;SDS011;9905;52.126;5.596;2022-11-20T01:03:41;10.17;;;8.80;;
19521;SDS011;9905;52.126;5.596;2022-11-20T01:06:11;9.33;;;8.60;;
19521;SDS011;9905;52.126;5.596;2022-11-20T01:08:39;10.00;;;9.10;;
19521;SDS011;9905;52.126;5.596;2022-11-20T01:11:08;9.43;;;8.53;;
19521;SDS011;9905;52.126;5.596;2022-11-20T01:13:36;8.90;;;8.10;;
19521;SDS011;9905;52.126;5.596;2022-11-20T01:16:04;8.37;;;7.70;;
19521;SDS011;9905;52.126;5.596;2022-11-20T01:18:32;11.50;;;8.37;;
19521;SDS011;9905;52.126;5.596;2022-11-20T01:21:02;8.73;;;7.93;;
19521;SDS011;9905;52.126;5.596;2022-11-20T01:23:30;8.50;;;7.83;;
19521;SDS011;9905;52.126;5.596;2022-11-20T01:25:59;9.93;;;8.97;;
19521;SDS011;9905;52.126;5.596;2022-11-20T01:28:28;9.30;;;8.60;;
19521;SDS011;9905;52.126;5.596;2022-11-20T01:30:55;9.33;;;8.63;;
19521;SDS011;9905;52.126;5.596;2022-11-20T01:33:22;10.23;;;9.07;;
19521;SDS011;9905;52.126;5.596;2022-11-20T01:35:49;13.57;;;9.60;;
19521;SDS011;9905;52.126;5.596;2022-11-20T01:38:16;9.33;;;8.57;;
19521;SDS011;9905;52.126;5.596;2022-11-20T01:40:45;12.87;;;8.97;;
19521;SDS011;9905;52.126;5.596;2022-11-20T01:43:19;9.07;;;8.30;;
19521;SDS011;9905;52.126;5.596;2022-11-20T01:46:08;8.67;;;7.97;;
19521;SDS011;9905;52.126;5.596;2022-11-20T01:48:42;9.07;;;8.30;;
19521;SDS011;9905;52.126;5.596;2022-11-20T01:51:19;8.37;;;7.57;;
19521;SDS011;9905;52.126;5.596;2022-11-20T01:53:49;9.03;;;8.30;;
19521;SDS011;9905;52.126;5.596;2022-11-20T01:56:17;9.17;;;8.33;;
19521;SDS011;9905;52.126;5.596;2022-11-20T01:58:45;8.67;;;7.77;;
19521;SDS011;9905;52.126;5.596;2022-11-20T02:01:18;8.30;;;7.53;;
19521;SDS011;9905;52.126;5.596;2022-11-20T02:03:46;10.47;;;9.37;;
19521;SDS011;9905;52.126;5.596;2022-11-20T02:06:15;8.13;;;7.47;;
19521;SDS011;9905;52.126;5.596;2022-11-20T02:08:45;8.60;;;7.83;;
19521;SDS011;9905;52.126;5.596;2022-11-20T02:11:11;8.23;;;7.53;;
19521;SDS011;9905;52.126;5.596;2022-11-20T02:13:38;11.63;;;8.17;;
19521;SDS011;9905;52.126;5.596;2022-11-20T02:16:08;9.27;;;8.27;;
19521;SDS011;9905;52.126;5.596;2022-11-20T02:18:39;8.07;;;7.57;;
19521;SDS011;9905;52.126;5.596;2022-11-20T02:21:08;8.80;;;8.10;;
19521;SDS011;9905;52.126;5.596;2022-11-20T02:23:39;8.77;;;8.00;;
19521;SDS011;9905;52.126;5.596;2022-11-20T02:26:20;8.10;;;7.50;;
19521;SDS011;9905;52.126;5.596;2022-11-20T02:28:49;8.50;;;7.83;;
19521;SDS011;9905;52.126;5.596;2022-11-20T02:31:16;8.63;;;7.83;;
19521;SDS011;9905;52.126;5.596;2022-11-20T02:33:43;8.27;;;7.57;;
19521;SDS011;9905;52.126;5.596;2022-11-20T02:36:11;9.07;;;8.10;;
19521;SDS011;9905;52.126;5.596;2022-11-20T02:38:40;9.63;;;8.07;;
19521;SDS011;9905;52.126;5.596;2022-11-20T02:41:10;8.20;;;7.37;;
19521;SDS011;9905;52.126;5.596;2022-11-20T02:43:36;8.87;;;8.03;;
19521;SDS011;9905;52.126;5.596;2022-11-20T02:46:04;7.43;;;6.93;;
19521;SDS011;9905;52.126;5.596;2022-11-20T02:48:33;8.60;;;7.87;;
19521;SDS011;9905;52.126;5.596;2022-11-20T02:51:00;9.07;;;8.07;;
19521;SDS011;9905;52.126;5.596;2022-11-20T02:53:27;9.57;;;8.73;;
19521;SDS011;9905;52.126;5.596;2022-11-20T02:55:54;9.53;;;8.73;;
19521;SDS011;9905;52.126;5.596;2022-11-20T02:58:22;9.77;;;8.97;;
19521;SDS011;9905;52.126;5.596;2022-11-20T03:00:49;8.43;;;7.47;;
19521;SDS011;9905;52.126;5.596;2022-11-20T03:03:16;11.30;;;8.60;;
19521;SDS011;9905;52.126;5.596;2022-11-20T03:05:42;11.03;;;9.00;;
19521;SDS011;9905;52.126;5.596;2022-11-20T03:08:09;10.83;;;7.63;;
19521;SDS011;9905;52.126;5.596;2022-11-20T03:10:36;9.30;;;8.47;;
19521;SDS011;9905;52.126;5.596;2022-11-20T03:13:02;8.00;;;7.40;;
19521;SDS011;9905;52.126;5.596;2022-11-20T03:15:30;12.97;;;9.03;;
19521;SDS011;9905;52.126;5.596;2022-11-20T03:17:57;9.53;;;8.70;;
19521;SDS011;9905;52.126;5.596;2022-11-20T03:20:24;9.53;;;7.87;;
19521;SDS011;9905;52.126;5.596;2022-11-20T03:22:50;9.77;;;8.73;;
19521;SDS011;9905;52.126;5.596;2022-11-20T03:25:19;9.13;;;8.27;;
19521;SDS011;9905;52.126;5.596;2022-11-20T03:27:46;9.00;;;8.23;;
19521;SDS011;9905;52.126;5.596;2022-11-20T03:30:13;10.07;;;8.43;;
19521;SDS011;9905;52.126;5.596;2022-11-20T03:32:42;10.20;;;9.30;;
19521;SDS011;9905;52.126;5.596;2022-11-20T03:35:09;9.57;;;8.83;;
19521;SDS011;9905;52.126;5.596;2022-11-20T03:37:35;9.77;;;8.87;;
19521;SDS011;9905;52.126;5.596;2022-11-20T03:40:03;9.00;;;8.20;;
19521;SDS011;9905;52.126;5.596;2022-11-20T03:42:30;10.20;;;9.30;;
19521;SDS011;9905;52.126;5.596;2022-11-20T03:45:12;11.43;;;8.20;;
19521;SDS011;9905;52.126;5.596;2022-11-20T03:47:40;8.47;;;7.87;;
19521;SDS011;9905;52.126;5.596;2022-11-20T03:50:08;9.30;;;8.67;;
19521;SDS011;9905;52.126;5.596;2022-11-20T03:52:37;9.87;;;8.03;;
19521;SDS011;9905;52.126;5.596;2022-11-20T03:55:04;9.83;;;8.83;;
19521;SDS011;9905;52.126;5.596;2022-11-20T03:57:31;9.87;;;8.53;;
19521;SDS011;9905;52.126;5.596;2022-11-20T03:59:58;9.17;;;8.30;;
19521;SDS011;9905;52.126;5.596;2022-11-20T04:02:25;9.73;;;8.80;;
19521;SDS011;9905;52.126;5.596;2022-11-20T04:04:53;9.93;;;9.03;;
19521;SDS011;9905;52.126;5.596;2022-11-20T04:07:20;10.83;;;9.70;;
19521;SDS011;9905;52.126;5.596;2022-11-20T04:09:46;11.20;;;9.77;;
19521;SDS011;9905;52.126;5.596;2022-11-20T04:12:13;10.90;;;9.73;;
19521;SDS011;9905;52.126;5.596;2022-11-20T04:14:40;10.60;;;9.50;;
19521;SDS011;9905;52.126;5.596;2022-11-20T04:17:06;9.33;;;8.53;;
19521;SDS011;9905;52.126;5.596;2022-11-20T04:19:33;13.70;;;10.13;;
19521;SDS011;9905;52.126;5.596;2022-11-20T04:22:01;10.00;;;9.30;;
19521;SDS011;9905;52.126;5.596;2022-11-20T04:24:28;9.67;;;9.00;;
19521;SDS011;9905;52.126;5.596;2022-11-20T04:26:54;12.03;;;8.80;;
19521;SDS011;9905;52.126;5.596;2022-11-20T04:29:21;10.40;;;9.17;;
19521;SDS011;9905;52.126;5.596;2022-11-20T04:31:48;9.80;;;8.83;;
19521;SDS011;9905;52.126;5.596;2022-11-20T04:34:15;10.03;;;9.13;;
19521;SDS011;9905;52.126;5.596;2022-11-20T04:36:41;13.70;;;10.60;;
19521;SDS011;9905;52.126;5.596;2022-11-20T04:39:12;12.60;;;9.60;;
19521;SDS011;9905;52.126;5.596;2022-11-20T04:41:40;24.13;;;10.57;;
19521;SDS011;9905;52.126;5.596;2022-11-20T04:44:07;17.60;;;10.00;;
19521;SDS011;9905;52.126;5.596;2022-11-20T04:46:34;14.13;;;9.47;;
19521;SDS011;9905;52.126;5.596;2022-11-20T04:49:02;15.33;;;9.47;;
19521;SDS011;9905;52.126;5.596;2022-11-20T04:51:30;15.20;;;10.10;;
19521;SDS011;9905;52.126;5.596;2022-11-20T04:53:56;14.43;;;9.73;;
19521;SDS011;9905;52.126;5.596;2022-11-20T04:56:24;16.23;;;9.63;;
19521;SDS011;9905;52.126;5.596;2022-11-20T04:58:51;11.37;;;10.03;;
19521;SDS011;9905;52.126;5.596;2022-11-20T05:01:19;10.00;;;9.00;;
19521;SDS011;9905;52.126;5.596;2022-11-20T05:03:46;13.07;;;9.13;;
19521;SDS011;9905;52.126;5.596;2022-11-20T05:06:15;10.90;;;9.77;;
19521;SDS011;9905;52.126;5.596;2022-11-20T05:08:42;10.47;;;9.40;;
19521;SDS011;9905;52.126;5.596;2022-11-20T05:11:10;14.40;;;9.70;;
19521;SDS011;9905;52.126;5.596;2022-11-20T05:13:39;10.10;;;9.20;;
19521;SDS011;9905;52.126;5.596;2022-11-20T05:16:07;9.13;;;8.53;;
19521;SDS011;9905;52.126;5.596;2022-11-20T05:18:35;9.97;;;9.03;;
19521;SDS011;9905;52.126;5.596;2022-11-20T05:21:03;10.87;;;9.87;;
19521;SDS011;9905;52.126;5.596;2022-11-20T05:23:30;9.63;;;8.73;;
19521;SDS011;9905;52.126;5.596;2022-11-20T05:25:58;10.37;;;9.27;;
19521;SDS011;9905;52.126;5.596;2022-11-20T05:28:26;9.07;;;8.37;;
19521;SDS011;9905;52.126;5.596;2022-11-20T05:30:55;15.73;;;9.27;;
19521;SDS011;9905;52.126;5.596;2022-11-20T05:33:22;9.83;;;8.77;;
19521;SDS011;9905;52.126;5.596;2022-11-20T05:35:48;9.50;;;8.20;;
19521;SDS011;9905;52.126;5.596;2022-11-20T05:38:15;10.30;;;9.27;;
19521;SDS011;9905;52.126;5.596;2022-11-20T05:40:42;10.07;;;9.37;;
19521;SDS011;9905;52.126;5.596;2022-11-20T05:43:08;9.43;;;8.60;;
19521;SDS011;9905;52.126;5.596;2022-11-20T05:45:35;9.30;;;8.70;;
19521;SDS011;9905;52.126;5.596;2022-11-20T05:48:03;10.10;;;8.60;;
19521;SDS011;9905;52.126;5.596;2022-11-20T05:50:30;10.77;;;9.60;;
19521;SDS011;9905;52.126;5.596;2022-11-20T05:52:57;10.80;;;9.70;;
19521;SDS011;9905;52.126;5.596;2022-11-20T05:55:25;8.43;;;7.77;;
19521;SDS011;9905;52.126;5.596;2022-11-20T05:57:52;9.10;;;8.23;;
19521;SDS011;9905;52.126;5.596;2022-11-20T06:00:19;9.93;;;9.10;;
19521;SDS011;9905;52.126;5.596;2022-11-20T06:02:46;8.47;;;8.00;;
19521;SDS011;9905;52.126;5.596;2022-11-20T06:05:14;10.13;;;9.27;;
19521;SDS011;9905;52.126;5.596;2022-11-20T06:07:41;10.60;;;9.70;;
19521;SDS011;9905;52.126;5.596;2022-11-20T06:10:08;9.30;;;8.50;;
19521;SDS011;9905;52.126;5.596;2022-11-20T06:12:35;11.37;;;8.60;;
19521;SDS011;9905;52.126;5.596;2022-11-20T06:15:02;11.47;;;8.50;;
19521;SDS011;9905;52.126;5.596;2022-11-20T06:17:30;8.77;;;7.87;;
19521;SDS011;9905;52.126;5.596;2022-11-20T06:19:56;8.47;;;7.87;;
19521;SDS011;9905;52.126;5.596;2022-11-20T06:22:24;8.63;;;7.77;;
19521;SDS011;9905;52.126;5.596;2022-11-20T06:24:51;9.93;;;9.17;;
19521;SDS011;9905;52.126;5.596;2022-11-20T06:27:18;11.60;;;7.77;;
19521;SDS011;9905;52.126;5.596;2022-11-20T06:29:44;8.07;;;7.40;;
19521;SDS011;9905;52.126;5.596;2022-11-20T06:32:11;9.73;;;8.93;;
19521;SDS011;9905;52.126;5.596;2022-11-20T06:34:38;10.07;;;9.27;;
19521;SDS011;9905;52.126;5.596;2022-11-20T06:37:05;9.00;;;8.03;;
19521;SDS011;9905;52.126;5.596;2022-11-20T06:39:33;9.67;;;8.80;;
19521;SDS011;9905;52.126;5.596;2022-11-20T06:41:59;7.80;;;7.30;;
19521;SDS011;9905;52.126;5.596;2022-11-20T06:44:26;10.80;;;9.77;;
19521;SDS011;9905;52.126;5.596;2022-11-20T06:46:53;8.90;;;8.20;;
19521;SDS011;9905;52.126;5.596;2022-11-20T06:49:20;10.13;;;9.03;;
19521;SDS011;9905;52.126;5.596;2022-11-20T06:51:46;8.83;;;8.00;;
19521;SDS011;9905;52.126;5.596;2022-11-20T06:54:13;9.50;;;8.63;;
19521;SDS011;9905;52.126;5.596;2022-11-20T06:56:41;9.53;;;8.83;;
19521;SDS011;9905;52.126;5.596;2022-11-20T06:59:08;12.30;;;8.30;;
19521;SDS011;9905;52.126;5.596;2022-11-20T07:01:34;9.43;;;8.53;;
19521;SDS011;9905;52.126;5.596;2022-11-20T07:04:01;9.17;;;8.47;;
19521;SDS011;9905;52.126;5.596;2022-11-20T07:06:28;9.47;;;8.67;;
19521;SDS011;9905;52.126;5.596;2022-11-20T07:08:55;9.07;;;8.23;;
19521;SDS011;9905;52.126;5.596;2022-11-20T07:11:22;10.50;;;9.47;;
19521;SDS011;9905;52.126;5.596;2022-11-20T07:13:50;11.07;;;9.20;;
19521;SDS011;9905;52.126;5.596;2022-11-20T07:16:17;15.80;;;9.77;;
19521;SDS011;9905;52.126;5.596;2022-11-20T07:18:44;10.17;;;9.17;;
19521;SDS011;9905;52.126;5.596;2022-11-20T07:21:10;9.53;;;8.67;;
19521;SDS011;9905;52.126;5.596;2022-11-20T07:23:37;9.30;;;8.50;;
19521;SDS011;9905;52.126;5.596;2022-11-20T07:26:04;10.63;;;9.57;;
19521;SDS011;9905;52.126;5.596;2022-11-20T07:28:32;10.23;;;9.30;;
19521;SDS011;9905;52.126;5.596;2022-11-20T07:31:00;9.37;;;8.47;;
19521;SDS011;9905;52.126;5.596;2022-11-20T07:33:27;8.67;;;8.13;;
19521;SDS011;9905;52.126;5.596;2022-11-20T07:35:54;9.03;;;8.33;;
19521;SDS011;9905;52.126;5.596;2022-11-20T07:38:21;10.60;;;9.53;;
19521;SDS011;9905;52.126;5.596;2022-11-20T07:40:47;9.10;;;8.33;;
19521;SDS011;9905;52.126;5.596;2022-11-20T07:43:14;9.83;;;8.87;;
19521;SDS011;9905;52.126;5.596;2022-11-20T07:45:41;11.03;;;9.57;;
19521;SDS011;9905;52.126;5.596;2022-11-20T07:48:09;9.77;;;8.90;;
19521;SDS011;9905;52.126;5.596;2022-11-20T07:50:36;7.93;;;7.43;;
19521;SDS011;9905;52.126;5.596;2022-11-20T07:53:03;9.50;;;8.80;;
19521;SDS011;9905;52.126;5.596;2022-11-20T07:55:30;9.60;;;8.80;;
19521;SDS011;9905;52.126;5.596;2022-11-20T07:57:58;10.20;;;9.30;;
19521;SDS011;9905;52.126;5.596;2022-11-20T08:00:25;17.10;;;8.93;;
19521;SDS011;9905;52.126;5.596;2022-11-20T08:02:52;9.40;;;8.70;;
19521;SDS011;9905;52.126;5.596;2022-11-20T08:05:20;10.60;;;9.60;;
19521;SDS011;9905;52.126;5.596;2022-11-20T08:07:47;13.03;;;10.03;;
19521;SDS011;9905;52.126;5.596;2022-11-20T08:10:14;9.00;;;8.23;;
19521;SDS011;9905;52.126;5.596;2022-11-20T08:12:45;11.70;;;10.47;;
19521;SDS011;9905;52.126;5.596;2022-11-20T08:15:30;10.43;;;9.73;;
19521;SDS011;9905;52.126;5.596;2022-11-20T08:18:00;12.23;;;10.80;;
19521;SDS011;9905;52.126;5.596;2022-11-20T08:20:30;11.20;;;10.17;;
19521;SDS011;9905;52.126;5.596;2022-11-20T08:22:57;10.33;;;9.43;;
19521;SDS011;9905;52.126;5.596;2022-11-20T08:25:25;13.17;;;11.80;;
19521;SDS011;9905;52.126;5.596;2022-11-20T08:27:52;11.17;;;10.07;;
19521;SDS011;9905;52.126;5.596;2022-11-20T08:30:19;10.33;;;9.27;;
19521;SDS011;9905;52.126;5.596;2022-11-20T08:32:45;12.90;;;11.80;;
19521;SDS011;9905;52.126;5.596;2022-11-20T08:35:12;12.63;;;11.43;;
19521;SDS011;9905;52.126;5.596;2022-11-20T08:37:40;12.83;;;10.63;;
19521;SDS011;9905;52.126;5.596;2022-11-20T08:40:08;12.23;;;11.20;;
19521;SDS011;9905;52.126;5.596;2022-11-20T08:42:36;13.43;;;12.03;;
19521;SDS011;9905;52.126;5.596;2022-11-20T08:45:03;13.13;;;12.03;;
19521;SDS011;9905;52.126;5.596;2022-11-20T08:47:30;13.37;;;11.97;;
19521;SDS011;9905;52.126;5.596;2022-11-20T08:49:57;13.50;;;10.87;;
19521;SDS011;9905;52.126;5.596;2022-11-20T08:52:24;13.57;;;12.27;;
19521;SDS011;9905;52.126;5.596;2022-11-20T08:54:52;15.37;;;11.90;;
19521;SDS011;9905;52.126;5.596;2022-11-20T08:57:18;14.97;;;12.23;;
19521;SDS011;9905;52.126;5.596;2022-11-20T08:59:45;11.77;;;10.73;;
19521;SDS011;9905;52.126;5.596;2022-11-20T09:02:12;18.77;;;14.03;;
19521;SDS011;9905;52.126;5.596;2022-11-20T09:04:38;15.50;;;13.40;;
19521;SDS011;9905;52.126;5.596;2022-11-20T09:07:05;14.97;;;13.40;;
19521;SDS011;9905;52.126;5.596;2022-11-20T09:09:32;16.87;;;12.70;;
19521;SDS011;9905;52.126;5.596;2022-11-20T09:12:00;14.50;;;13.03;;
19521;SDS011;9905;52.126;5.596;2022-11-20T09:14:27;18.17;;;13.70;;
19521;SDS011;9905;52.126;5.596;2022-11-20T09:16:55;16.27;;;14.63;;
19521;SDS011;9905;52.126;5.596;2022-11-20T09:19:23;16.50;;;14.27;;
19521;SDS011;9905;52.126;5.596;2022-11-20T09:21:49;15.90;;;13.43;;
19521;SDS011;9905;52.126;5.596;2022-11-20T09:24:16;16.70;;;15.10;;
19521;SDS011;9905;52.126;5.596;2022-11-20T09:26:43;14.30;;;12.80;;
19521;SDS011;9905;52.126;5.596;2022-11-20T09:29:12;19.53;;;13.43;;
19521;SDS011;9905;52.126;5.596;2022-11-20T09:31:39;14.50;;;13.10;;
19521;SDS011;9905;52.126;5.596;2022-11-20T09:34:05;17.60;;;13.63;;
19521;SDS011;9905;52.126;5.596;2022-11-20T09:36:32;18.83;;;14.17;;
19521;SDS011;9905;52.126;5.596;2022-11-20T09:38:59;14.40;;;12.80;;
19521;SDS011;9905;52.126;5.596;2022-11-20T09:41:39;14.40;;;13.00;;
19521;SDS011;9905;52.126;5.596;2022-11-20T09:44:28;16.00;;;12.37;;
19521;SDS011;9905;52.126;5.596;2022-11-20T09:47:05;13.37;;;12.03;;
19521;SDS011;9905;52.126;5.596;2022-11-20T09:49:40;14.67;;;13.30;;
19521;SDS011;9905;52.126;5.596;2022-11-20T09:52:21;15.20;;;13.70;;
19521;SDS011;9905;52.126;5.596;2022-11-20T09:54:53;16.83;;;14.13;;
19521;SDS011;9905;52.126;5.596;2022-11-20T09:57:21;19.03;;;14.63;;
19521;SDS011;9905;52.126;5.596;2022-11-20T09:59:53;16.83;;;13.10;;
19521;SDS011;9905;52.126;5.596;2022-11-20T10:02:26;17.57;;;15.17;;
19521;SDS011;9905;52.126;5.596;2022-11-20T10:04:57;16.97;;;14.40;;
19521;SDS011;9905;52.126;5.596;2022-11-20T10:07:29;16.27;;;14.23;;
19521;SDS011;9905;52.126;5.596;2022-11-20T10:09:58;17.13;;;13.97;;
19521;SDS011;9905;52.126;5.596;2022-11-20T10:12:27;15.33;;;13.93;;
19521;SDS011;9905;52.126;5.596;2022-11-20T10:15:09;17.57;;;14.73;;
19521;SDS011;9905;52.126;5.596;2022-11-20T10:17:54;16.97;;;14.73;;
19521;SDS011;9905;52.126;5.596;2022-11-20T10:20:29;22.30;;;15.97;;
19521;SDS011;9905;52.126;5.596;2022-11-20T10:23:11;17.27;;;15.23;;
19521;SDS011;9905;52.126;5.596;2022-11-20T10:26:17;19.03;;;15.07;;
19521;SDS011;9905;52.126;5.596;2022-11-20T10:28:54;18.90;;;15.10;;
19521;SDS011;9905;52.126;5.596;2022-11-20T10:31:31;17.60;;;14.47;;
19521;SDS011;9905;52.126;5.596;2022-11-20T10:34:01;15.70;;;14.17;;
19521;SDS011;9905;52.126;5.596;2022-11-20T10:36:33;21.37;;;16.90;;
19521;SDS011;9905;52.126;5.596;2022-11-20T10:39:05;21.47;;;14.97;;
19521;SDS011;9905;52.126;5.596;2022-11-20T10:41:40;21.90;;;15.27;;
19521;SDS011;9905;52.126;5.596;2022-11-20T10:44:10;21.23;;;16.10;;
19521;SDS011;9905;52.126;5.596;2022-11-20T10:47:02;21.70;;;16.70;;
19521;SDS011;9905;52.126;5.596;2022-11-20T10:49:31;25.20;;;16.70;;
19521;SDS011;9905;52.126;5.596;2022-11-20T10:52:01;21.37;;;16.97;;
19521;SDS011;9905;52.126;5.596;2022-11-20T10:54:36;18.27;;;16.20;;
19521;SDS011;9905;52.126;5.596;2022-11-20T10:57:13;21.50;;;15.90;;
19521;SDS011;9905;52.126;5.596;2022-11-20T11:02:39;23.10;;;16.57;;
19521;SDS011;9905;52.126;5.596;2022-11-20T11:05:10;22.33;;;17.93;;
19521;SDS011;9905;52.126;5.596;2022-11-20T11:07:48;22.43;;;16.23;;
19521;SDS011;9905;52.126;5.596;2022-11-20T11:10:17;25.03;;;16.93;;
19521;SDS011;9905;52.126;5.596;2022-11-20T11:12:46;23.83;;;17.90;;
19521;SDS011;9905;52.126;5.596;2022-11-20T11:15:14;26.27;;;17.73;;
19521;SDS011;9905;52.126;5.596;2022-11-20T11:17:51;26.60;;;18.17;;
19521;SDS011;9905;52.126;5.596;2022-11-20T11:20:19;22.50;;;17.63;;
19521;SDS011;9905;52.126;5.596;2022-11-20T11:22:48;22.13;;;17.37;;
19521;SDS011;9905;52.126;5.596;2022-11-20T11:25:21;22.97;;;17.07;;
19521;SDS011;9905;52.126;5.596;2022-11-20T11:27:55;28.63;;;18.27;;
19521;SDS011;9905;52.126;5.596;2022-11-20T11:30:23;27.13;;;19.17;;
19521;SDS011;9905;52.126;5.596;2022-11-20T11:33:03;24.70;;;18.93;;
19521;SDS011;9905;52.126;5.596;2022-11-20T11:35:32;30.93;;;18.97;;
19521;SDS011;9905;52.126;5.596;2022-11-20T11:38:03;30.33;;;18.87;;
19521;SDS011;9905;52.126;5.596;2022-11-20T11:40:32;27.10;;;18.23;;
19521;SDS011;9905;52.126;5.596;2022-11-20T11:43:02;25.67;;;18.37;;
19521;SDS011;9905;52.126;5.596;2022-11-20T11:45:52;22.07;;;17.67;;
19521;SDS011;9905;52.126;5.596;2022-11-20T11:48:21;26.13;;;17.98;;
19521;SDS011;9905;52.126;5.596;2022-11-20T11:50:48;25.53;;;17.60;;
19521;SDS011;9905;52.126;5.596;2022-11-20T11:53:17;23.02;;;17.45;;
19521;SDS011;9905;52.126;5.596;2022-11-20T11:55:46;21.83;;;16.90;;
19521;SDS011;9905;52.126;5.596;2022-11-20T11:58:29;23.30;;;17.35;;
19521;SDS011;9905;52.126;5.596;2022-11-20T12:01:07;21.40;;;16.17;;
19521;SDS011;9905;52.126;5.596;2022-11-20T12:03:50;23.38;;;17.05;;
19521;SDS011;9905;52.126;5.596;2022-11-20T12:06:25;24.67;;;15.93;;
19521;SDS011;9905;52.126;5.596;2022-11-20T12:08:55;21.43;;;17.13;;
19521;SDS011;9905;52.126;5.596;2022-11-20T12:11:29;22.50;;;17.33;;
19521;SDS011;9905;52.126;5.596;2022-11-20T12:14:02;20.92;;;16.52;;
19521;SDS011;9905;52.126;5.596;2022-11-20T12:16:36;23.42;;;16.30;;
19521;SDS011;9905;52.126;5.596;2022-11-20T12:19:07;21.08;;;15.60;;
19521;SDS011;9905;52.126;5.596;2022-11-20T12:21:38;24.73;;;17.90;;
19521;SDS011;9905;52.126;5.596;2022-11-20T12:24:32;23.77;;;17.47;;
19521;SDS011;9905;52.126;5.596;2022-11-20T12:30:07;24.53;;;17.23;;
19521;SDS011;9905;52.126;5.596;2022-11-20T12:32:39;23.73;;;16.97;;
19521;SDS011;9905;52.126;5.596;2022-11-20T12:35:32;27.63;;;18.10;;
19521;SDS011;9905;52.126;5.596;2022-11-20T12:38:20;22.23;;;17.57;;
19521;SDS011;9905;52.126;5.596;2022-11-20T12:41:11;21.15;;;15.55;;
19521;SDS011;9905;52.126;5.596;2022-11-20T12:44:07;21.65;;;16.50;;
19521;SDS011;9905;52.126;5.596;2022-11-20T12:47:00;23.50;;;15.77;;
19521;SDS011;9905;52.126;5.596;2022-11-20T12:49:41;26.75;;;16.10;;
19521;SDS011;9905;52.126;5.596;2022-11-20T12:52:20;20.38;;;16.52;;
19521;SDS011;9905;52.126;5.596;2022-11-20T12:55:02;26.10;;;17.80;;
19521;SDS011;9905;52.126;5.596;2022-11-20T12:57:43;24.65;;;17.42;;
19521;SDS011;9905;52.126;5.596;2022-11-20T13:00:16;20.17;;;16.53;;
19521;SDS011;9905;52.126;5.596;2022-11-20T13:02:56;20.60;;;16.15;;
19521;SDS011;9905;52.126;5.596;2022-11-20T13:05:43;22.30;;;17.07;;
19521;SDS011;9905;52.126;5.596;2022-11-20T13:08:21;25.08;;;17.73;;
19521;SDS011;9905;52.126;5.596;2022-11-20T13:10:52;22.40;;;17.88;;
19521;SDS011;9905;52.126;5.596;2022-11-20T13:13:31;22.40;;;17.05;;
19521;SDS011;9905;52.126;5.596;2022-11-20T13:16:08;20.20;;;17.53;;
19521;SDS011;9905;52.126;5.596;2022-11-20T13:18:41;19.80;;;16.80;;
19521;SDS011;9905;52.126;5.596;2022-11-20T13:21:17;23.70;;;17.20;;
19521;SDS011;9905;52.126;5.596;2022-11-20T13:23:46;21.77;;;16.95;;
19521;SDS011;9905;52.126;5.596;2022-11-20T13:26:17;22.43;;;18.43;;
19521;SDS011;9905;52.126;5.596;2022-11-20T13:28:46;21.85;;;16.52;;
19521;SDS011;9905;52.126;5.596;2022-11-20T13:31:29;21.60;;;17.93;;
19521;SDS011;9905;52.126;5.596;2022-11-20T13:33:58;21.83;;;17.40;;
19521;SDS011;9905;52.126;5.596;2022-11-20T13:36:28;26.48;;;18.35;;
19521;SDS011;9905;52.126;5.596;2022-11-20T13:38:57;25.40;;;19.10;;
19521;SDS011;9905;52.126;5.596;2022-11-20T13:41:25;23.70;;;19.63;;
19521;SDS011;9905;52.126;5.596;2022-11-20T13:43:59;24.95;;;18.35;;
19521;SDS011;9905;52.126;5.596;2022-11-20T13:46:36;23.50;;;18.80;;
19521;SDS011;9905;52.126;5.596;2022-11-20T13:49:08;23.88;;;18.45;;
19521;SDS011;9905;52.126;5.596;2022-11-20T13:51:39;28.33;;;19.73;;
19521;SDS011;9905;52.126;5.596;2022-11-20T13:54:17;24.60;;;17.37;;
19521;SDS011;9905;52.126;5.596;2022-11-20T14:00:11;28.30;;;19.47;;
19521;SDS011;9905;52.126;5.596;2022-11-20T14:02:39;21.67;;;17.57;;
19521;SDS011;9905;52.126;5.596;2022-11-20T14:05:11;22.52;;;18.25;;
19521;SDS011;9905;52.126;5.596;2022-11-20T14:07:45;27.13;;;19.70;;
19521;SDS011;9905;52.126;5.596;2022-11-20T14:10:21;24.77;;;18.13;;
19521;SDS011;9905;52.126;5.596;2022-11-20T14:12:49;27.42;;;18.88;;
19521;SDS011;9905;52.126;5.596;2022-11-20T14:15:27;23.60;;;19.33;;
19521;SDS011;9905;52.126;5.596;2022-11-20T14:17:56;22.95;;;17.92;;
19521;SDS011;9905;52.126;5.596;2022-11-20T14:20:23;31.70;;;20.47;;
19521;SDS011;9905;52.126;5.596;2022-11-20T14:22:53;24.70;;;18.75;;
19521;SDS011;9905;52.126;5.596;2022-11-20T14:25:22;24.08;;;18.50;;
19521;SDS011;9905;52.126;5.596;2022-11-20T14:27:52;30.77;;;20.70;;
19521;SDS011;9905;52.126;5.596;2022-11-20T14:30:21;22.40;;;19.00;;
19521;SDS011;9905;52.126;5.596;2022-11-20T14:32:49;26.80;;;19.83;;
19521;SDS011;9905;52.126;5.596;2022-11-20T14:35:18;22.48;;;19.52;;
19521;SDS011;9905;52.126;5.596;2022-11-20T14:37:47;25.10;;;19.70;;
19521;SDS011;9905;52.126;5.596;2022-11-20T14:40:29;24.40;;;19.70;;
19521;SDS011;9905;52.126;5.596;2022-11-20T14:42:57;24.05;;;19.77;;
19521;SDS011;9905;52.126;5.596;2022-11-20T14:45:25;25.85;;;20.17;;
19521;SDS011;9905;52.126;5.596;2022-11-20T14:47:53;24.42;;;19.65;;
19521;SDS011;9905;52.126;5.596;2022-11-20T14:50:22;25.33;;;20.13;;
19521;SDS011;9905;52.126;5.596;2022-11-20T14:52:51;22.20;;;19.42;;
19521;SDS011;9905;52.126;5.596;2022-11-20T14:55:25;24.48;;;20.30;;
19521;SDS011;9905;52.126;5.596;2022-11-20T14:57:58;26.20;;;20.33;;
19521;SDS011;9905;52.126;5.596;2022-11-20T15:00:27;26.63;;;20.63;;
19521;SDS011;9905;52.126;5.596;2022-11-20T15:02:55;28.25;;;20.65;;
19521;SDS011;9905;52.126;5.596;2022-11-20T15:05:23;23.60;;;21.02;;
19521;SDS011;9905;52.126;5.596;2022-11-20T15:07:51;27.02;;;21.25;;
19521;SDS011;9905;52.126;5.596;2022-11-20T15:10:30;28.30;;;20.77;;
19521;SDS011;9905;52.126;5.596;2022-11-20T15:12:59;28.17;;;20.75;;